sensor_id;sensor_type;location;lat;lon;timestamp;P1;durP1;ratioP1;P2;durP2;ratioP2
35518;SDS011;21627;48.216;16.482;2022-11-20T00:01:30;27.60;;;15.30;;
35518;SDS011;21627;48.216;16.482;2022-11-20T00:03:58;30.13;;;15.70;;
35518;SDS011;21627;48.216;16.482;2022-11-20T00:06:26;29.97;;;14.80;;
35518;SDS011;21627;48.216;16.482;2022-11-20T00:08:56;27.17;;;14.33;;
35518;SDS011;21627;48.216;16.482;2022-11-20T00:11:27;27.47;;;14.63;;
35518;SDS011;21627;48.216;16.482;2022-11-20T00:13:57;28.17;;;15.13;;
35518;SDS011;21627;48.216;16.482;2022-11-20T00:16:27;30.67;;;16.40;;
35518;SDS011;21627;48.216;16.482;2022-11-20T00:18:57;29.27;;;15.10;;
35518;SDS011;21627;48.216;16.482;2022-11-20T00:21:24;33.50;;;16.43;;
35518;SDS011;21627;48.216;16.482;2022-11-20T00:24:11;30.77;;;16.10;;
35518;SDS011;21627;48.216;16.482;2022-11-20T00:26:38;32.17;;;15.40;;
35518;SDS011;21627;48.216;16.482;2022-11-20T00:29:06;29.77;;;14.53;;
35518;SDS011;21627;48.216;16.482;2022-11-20T00:31:35;35.03;;;16.57;;
35518;SDS011;21627;48.216;16.482;2022-11-20T00:34:03;31.23;;;15.63;;
35518;SDS011;21627;48.216;16.482;2022-11-20T00:36:32;32.97;;;16.00;;
35518;SDS011;21627;48.216;16.482;2022-11-20T00:39:00;33.30;;;16.27;;
35518;SDS011;21627;48.216;16.482;2022-11-20T00:41:27;32.70;;;16.83;;
35518;SDS011;21627;48.216;16.482;2022-11-20T00:43:56;32.43;;;15.70;;
35518;SDS011;21627;48.216;16.482;2022-11-20T00:46:25;34.00;;;16.03;;
35518;SDS011;21627;48.216;16.482;2022-11-20T00:48:53;33.50;;;17.07;;
35518;SDS011;21627;48.216;16.482;2022-11-20T00:51:21;33.97;;;16.27;;
35518;SDS011;21627;48.216;16.482;2022-11-20T00:53:51;36.93;;;17.90;;
35518;SDS011;21627;48.216;16.482;2022-11-20T00:56:18;33.03;;;17.40;;
35518;SDS011;21627;48.216;16.482;2022-11-20T00:58:47;33.90;;;17.37;;
35518;SDS011;21627;48.216;16.482;2022-11-20T01:01:19;33.27;;;17.13;;
35518;SDS011;21627;48.216;16.482;2022-11-20T01:03:51;35.25;;;17.75;;
35518;SDS011;21627;48.216;16.482;2022-11-20T01:06:24;35.73;;;17.40;;
35518;SDS011;21627;48.216;16.482;2022-11-20T01:09:08;33.80;;;15.40;;
35518;SDS011;21627;48.216;16.482;2022-11-20T01:11:40;33.95;;;16.63;;
35518;SDS011;21627;48.216;16.482;2022-11-20T01:14:12;34.23;;;16.90;;
35518;SDS011;21627;48.216;16.482;2022-11-20T01:16:43;35.47;;;17.70;;
35518;SDS011;21627;48.216;16.482;2022-11-20T01:19:15;35.67;;;18.93;;
35518;SDS011;21627;48.216;16.482;2022-11-20T01:21:48;34.97;;;17.10;;
35518;SDS011;21627;48.216;16.482;2022-11-20T01:24:20;33.13;;;17.87;;
35518;SDS011;21627;48.216;16.482;2022-11-20T01:26:49;36.73;;;18.40;;
35518;SDS011;21627;48.216;16.482;2022-11-20T01:29:24;33.93;;;17.50;;
35518;SDS011;21627;48.216;16.482;2022-11-20T01:31:51;36.33;;;18.50;;
35518;SDS011;21627;48.216;16.482;2022-11-20T01:34:20;30.57;;;15.40;;
35518;SDS011;21627;48.216;16.482;2022-11-20T01:36:49;32.10;;;17.53;;
35518;SDS011;21627;48.216;16.482;2022-11-20T01:39:18;34.43;;;17.53;;
35518;SDS011;21627;48.216;16.482;2022-11-20T01:41:48;39.67;;;19.53;;
35518;SDS011;21627;48.216;16.482;2022-11-20T01:47:35;37.40;;;18.70;;
35518;SDS011;21627;48.216;16.482;2022-11-20T01:50:14;37.07;;;17.93;;
35518;SDS011;21627;48.216;16.482;2022-11-20T01:53:03;29.07;;;15.60;;
35518;SDS011;21627;48.216;16.482;2022-11-20T01:55:40;31.03;;;15.87;;
35518;SDS011;21627;48.216;16.482;2022-11-20T01:58:14;38.33;;;18.77;;
35518;SDS011;21627;48.216;16.482;2022-11-20T02:00:46;36.00;;;17.40;;
35518;SDS011;21627;48.216;16.482;2022-11-20T02:03:15;38.07;;;20.07;;
35518;SDS011;21627;48.216;16.482;2022-11-20T02:05:46;37.03;;;18.43;;
35518;SDS011;21627;48.216;16.482;2022-11-20T02:08:41;35.40;;;17.85;;
35518;SDS011;21627;48.216;16.482;2022-11-20T02:11:08;37.63;;;18.20;;
35518;SDS011;21627;48.216;16.482;2022-11-20T02:13:35;38.70;;;18.73;;
35518;SDS011;21627;48.216;16.482;2022-11-20T02:16:22;32.50;;;16.97;;
35518;SDS011;21627;48.216;16.482;2022-11-20T02:18:51;41.97;;;19.23;;
35518;SDS011;21627;48.216;16.482;2022-11-20T02:21:25;39.87;;;18.53;;
35518;SDS011;21627;48.216;16.482;2022-11-20T02:24:05;37.20;;;17.80;;
35518;SDS011;21627;48.216;16.482;2022-11-20T02:26:59;39.33;;;18.37;;
35518;SDS011;21627;48.216;16.482;2022-11-20T02:29:46;36.20;;;17.33;;
35518;SDS011;21627;48.216;16.482;2022-11-20T02:32:37;34.23;;;17.77;;
35518;SDS011;21627;48.216;16.482;2022-11-20T02:35:06;36.63;;;18.17;;
35518;SDS011;21627;48.216;16.482;2022-11-20T02:37:57;35.93;;;18.27;;
35518;SDS011;21627;48.216;16.482;2022-11-20T02:40:30;36.10;;;16.97;;
35518;SDS011;21627;48.216;16.482;2022-11-20T02:42:57;35.90;;;17.77;;
35518;SDS011;21627;48.216;16.482;2022-11-20T02:45:24;37.20;;;18.57;;
35518;SDS011;21627;48.216;16.482;2022-11-20T02:47:52;40.33;;;19.10;;
35518;SDS011;21627;48.216;16.482;2022-11-20T02:50:19;34.57;;;17.73;;
35518;SDS011;21627;48.216;16.482;2022-11-20T02:52:46;39.07;;;19.47;;
35518;SDS011;21627;48.216;16.482;2022-11-20T02:55:13;40.17;;;17.87;;
35518;SDS011;21627;48.216;16.482;2022-11-20T02:57:40;37.70;;;18.40;;
35518;SDS011;21627;48.216;16.482;2022-11-20T03:00:08;40.57;;;19.63;;
35518;SDS011;21627;48.216;16.482;2022-11-20T03:02:35;39.33;;;19.27;;
35518;SDS011;21627;48.216;16.482;2022-11-20T03:05:03;40.63;;;19.27;;
35518;SDS011;21627;48.216;16.482;2022-11-20T03:07:30;40.13;;;18.73;;
35518;SDS011;21627;48.216;16.482;2022-11-20T03:09:57;33.80;;;17.80;;
35518;SDS011;21627;48.216;16.482;2022-11-20T03:12:24;36.30;;;17.90;;
35518;SDS011;21627;48.216;16.482;2022-11-20T03:14:51;39.73;;;19.07;;
35518;SDS011;21627;48.216;16.482;2022-11-20T03:17:19;36.17;;;17.60;;
35518;SDS011;21627;48.216;16.482;2022-11-20T03:19:46;39.77;;;18.60;;
35518;SDS011;21627;48.216;16.482;2022-11-20T03:22:13;38.60;;;19.10;;
35518;SDS011;21627;48.216;16.482;2022-11-20T03:24:40;36.40;;;18.77;;
35518;SDS011;21627;48.216;16.482;2022-11-20T03:27:07;41.27;;;18.43;;
35518;SDS011;21627;48.216;16.482;2022-11-20T03:29:37;37.93;;;18.77;;
35518;SDS011;21627;48.216;16.482;2022-11-20T03:32:04;43.83;;;19.30;;
35518;SDS011;21627;48.216;16.482;2022-11-20T03:34:31;40.93;;;19.83;;
35518;SDS011;21627;48.216;16.482;2022-11-20T03:36:58;39.67;;;20.27;;
35518;SDS011;21627;48.216;16.482;2022-11-20T03:39:26;36.10;;;17.97;;
35518;SDS011;21627;48.216;16.482;2022-11-20T03:41:53;36.10;;;18.07;;
35518;SDS011;21627;48.216;16.482;2022-11-20T03:44:20;38.50;;;19.30;;
35518;SDS011;21627;48.216;16.482;2022-11-20T03:46:48;38.50;;;18.63;;
35518;SDS011;21627;48.216;16.482;2022-11-20T03:49:15;43.00;;;20.47;;
35518;SDS011;21627;48.216;16.482;2022-11-20T03:51:42;34.77;;;18.27;;
35518;SDS011;21627;48.216;16.482;2022-11-20T03:54:09;41.93;;;20.63;;
35518;SDS011;21627;48.216;16.482;2022-11-20T03:56:37;50.33;;;22.57;;
35518;SDS011;21627;48.216;16.482;2022-11-20T03:59:05;45.53;;;22.90;;
35518;SDS011;21627;48.216;16.482;2022-11-20T04:01:34;43.47;;;21.77;;
35518;SDS011;21627;48.216;16.482;2022-11-20T04:04:09;42.93;;;21.47;;
35518;SDS011;21627;48.216;16.482;2022-11-20T04:06:37;43.30;;;22.17;;
35518;SDS011;21627;48.216;16.482;2022-11-20T04:09:04;47.47;;;21.60;;
35518;SDS011;21627;48.216;16.482;2022-11-20T04:11:34;40.90;;;20.30;;
35518;SDS011;21627;48.216;16.482;2022-11-20T04:14:05;43.67;;;20.13;;
35518;SDS011;21627;48.216;16.482;2022-11-20T04:16:38;45.80;;;21.58;;
35518;SDS011;21627;48.216;16.482;2022-11-20T04:19:08;39.93;;;19.90;;
35518;SDS011;21627;48.216;16.482;2022-11-20T04:21:38;41.80;;;20.10;;
35518;SDS011;21627;48.216;16.482;2022-11-20T04:24:05;40.07;;;19.27;;
35518;SDS011;21627;48.216;16.482;2022-11-20T04:26:33;48.30;;;21.23;;
35518;SDS011;21627;48.216;16.482;2022-11-20T04:29:00;38.60;;;19.40;;
35518;SDS011;21627;48.216;16.482;2022-11-20T04:31:28;44.20;;;20.20;;
35518;SDS011;21627;48.216;16.482;2022-11-20T04:34:05;39.73;;;18.47;;
35518;SDS011;21627;48.216;16.482;2022-11-20T04:36:33;39.13;;;18.30;;
35518;SDS011;21627;48.216;16.482;2022-11-20T04:39:02;38.73;;;19.20;;
35518;SDS011;21627;48.216;16.482;2022-11-20T04:41:33;34.30;;;18.63;;
35518;SDS011;21627;48.216;16.482;2022-11-20T04:44:03;39.80;;;19.67;;
35518;SDS011;21627;48.216;16.482;2022-11-20T04:46:33;36.27;;;18.17;;
35518;SDS011;21627;48.216;16.482;2022-11-20T04:49:08;41.90;;;20.27;;
35518;SDS011;21627;48.216;16.482;2022-11-20T04:51:37;38.03;;;19.00;;
35518;SDS011;21627;48.216;16.482;2022-11-20T04:54:04;37.23;;;20.47;;
35518;SDS011;21627;48.216;16.482;2022-11-20T04:56:31;41.80;;;20.20;;
35518;SDS011;21627;48.216;16.482;2022-11-20T04:59:01;40.80;;;20.37;;
35518;SDS011;21627;48.216;16.482;2022-11-20T05:01:29;43.50;;;19.63;;
35518;SDS011;21627;48.216;16.482;2022-11-20T05:03:56;40.37;;;20.10;;
35518;SDS011;21627;48.216;16.482;2022-11-20T05:06:24;40.93;;;20.50;;
35518;SDS011;21627;48.216;16.482;2022-11-20T05:08:51;40.80;;;19.43;;
35518;SDS011;21627;48.216;16.482;2022-11-20T05:11:19;44.87;;;21.80;;
35518;SDS011;21627;48.216;16.482;2022-11-20T05:13:48;41.70;;;21.70;;
35518;SDS011;21627;48.216;16.482;2022-11-20T05:16:18;41.20;;;19.30;;
35518;SDS011;21627;48.216;16.482;2022-11-20T05:18:49;36.90;;;19.50;;
35518;SDS011;21627;48.216;16.482;2022-11-20T05:21:17;50.87;;;20.43;;
35518;SDS011;21627;48.216;16.482;2022-11-20T05:23:45;40.40;;;19.73;;
35518;SDS011;21627;48.216;16.482;2022-11-20T05:26:13;38.60;;;19.33;;
35518;SDS011;21627;48.216;16.482;2022-11-20T05:28:51;39.90;;;19.37;;
35518;SDS011;21627;48.216;16.482;2022-11-20T05:31:19;40.27;;;20.67;;
35518;SDS011;21627;48.216;16.482;2022-11-20T05:33:54;42.83;;;20.55;;
35518;SDS011;21627;48.216;16.482;2022-11-20T05:36:23;40.23;;;19.07;;
35518;SDS011;21627;48.216;16.482;2022-11-20T05:38:50;43.10;;;20.20;;
35518;SDS011;21627;48.216;16.482;2022-11-20T05:41:23;42.07;;;19.83;;
35518;SDS011;21627;48.216;16.482;2022-11-20T05:43:51;40.30;;;20.20;;
35518;SDS011;21627;48.216;16.482;2022-11-20T05:46:19;37.30;;;17.77;;
35518;SDS011;21627;48.216;16.482;2022-11-20T05:48:53;40.77;;;19.50;;
35518;SDS011;21627;48.216;16.482;2022-11-20T05:51:20;42.83;;;19.83;;
35518;SDS011;21627;48.216;16.482;2022-11-20T05:53:48;39.87;;;20.33;;
35518;SDS011;21627;48.216;16.482;2022-11-20T05:56:16;45.07;;;19.70;;
35518;SDS011;21627;48.216;16.482;2022-11-20T05:58:46;44.37;;;20.07;;
35518;SDS011;21627;48.216;16.482;2022-11-20T06:01:18;38.63;;;19.80;;
35518;SDS011;21627;48.216;16.482;2022-11-20T06:03:49;46.25;;;21.90;;
35518;SDS011;21627;48.216;16.482;2022-11-20T06:06:18;39.77;;;20.20;;
35518;SDS011;21627;48.216;16.482;2022-11-20T06:08:46;42.43;;;21.17;;
35518;SDS011;21627;48.216;16.482;2022-11-20T06:11:14;46.13;;;21.20;;
35518;SDS011;21627;48.216;16.482;2022-11-20T06:13:42;41.10;;;21.07;;
35518;SDS011;21627;48.216;16.482;2022-11-20T06:16:11;47.63;;;22.23;;
35518;SDS011;21627;48.216;16.482;2022-11-20T06:18:40;44.97;;;21.37;;
35518;SDS011;21627;48.216;16.482;2022-11-20T06:21:11;46.67;;;22.27;;
35518;SDS011;21627;48.216;16.482;2022-11-20T06:23:45;42.37;;;22.07;;
35518;SDS011;21627;48.216;16.482;2022-11-20T06:26:16;44.20;;;22.17;;
35518;SDS011;21627;48.216;16.482;2022-11-20T06:28:52;43.20;;;22.07;;
35518;SDS011;21627;48.216;16.482;2022-11-20T06:31:23;45.33;;;21.77;;
35518;SDS011;21627;48.216;16.482;2022-11-20T06:33:52;48.30;;;22.67;;
35518;SDS011;21627;48.216;16.482;2022-11-20T06:36:20;44.17;;;21.93;;
35518;SDS011;21627;48.216;16.482;2022-11-20T06:38:49;53.53;;;23.60;;
35518;SDS011;21627;48.216;16.482;2022-11-20T06:41:18;50.67;;;23.47;;
35518;SDS011;21627;48.216;16.482;2022-11-20T06:43:48;49.37;;;21.87;;
35518;SDS011;21627;48.216;16.482;2022-11-20T06:46:16;44.37;;;20.47;;
35518;SDS011;21627;48.216;16.482;2022-11-20T06:48:46;45.23;;;21.23;;
35518;SDS011;21627;48.216;16.482;2022-11-20T06:51:14;40.27;;;21.37;;
35518;SDS011;21627;48.216;16.482;2022-11-20T06:53:42;43.57;;;20.83;;
35518;SDS011;21627;48.216;16.482;2022-11-20T06:56:09;45.90;;;21.63;;
35518;SDS011;21627;48.216;16.482;2022-11-20T06:58:36;43.37;;;21.17;;
35518;SDS011;21627;48.216;16.482;2022-11-20T07:01:05;47.17;;;21.77;;
35518;SDS011;21627;48.216;16.482;2022-11-20T07:03:41;40.50;;;20.40;;
35518;SDS011;21627;48.216;16.482;2022-11-20T07:06:09;42.93;;;20.30;;
35518;SDS011;21627;48.216;16.482;2022-11-20T07:08:36;46.37;;;20.40;;
35518;SDS011;21627;48.216;16.482;2022-11-20T07:11:04;43.13;;;21.63;;
35518;SDS011;21627;48.216;16.482;2022-11-20T07:13:33;45.13;;;22.13;;
35518;SDS011;21627;48.216;16.482;2022-11-20T07:16:04;50.53;;;22.93;;
35518;SDS011;21627;48.216;16.482;2022-11-20T07:18:35;46.97;;;21.83;;
35518;SDS011;21627;48.216;16.482;2022-11-20T07:21:03;49.43;;;22.53;;
35518;SDS011;21627;48.216;16.482;2022-11-20T07:23:36;42.13;;;21.17;;
35518;SDS011;21627;48.216;16.482;2022-11-20T07:26:07;43.13;;;21.33;;
35518;SDS011;21627;48.216;16.482;2022-11-20T07:28:36;41.50;;;20.77;;
35518;SDS011;21627;48.216;16.482;2022-11-20T07:31:04;44.67;;;21.97;;
35518;SDS011;21627;48.216;16.482;2022-11-20T07:33:33;49.73;;;22.00;;
35518;SDS011;21627;48.216;16.482;2022-11-20T07:36:00;45.87;;;21.63;;
35518;SDS011;21627;48.216;16.482;2022-11-20T07:38:27;46.47;;;22.00;;
35518;SDS011;21627;48.216;16.482;2022-11-20T07:41:05;45.33;;;22.73;;
35518;SDS011;21627;48.216;16.482;2022-11-20T07:43:32;44.13;;;22.17;;
35518;SDS011;21627;48.216;16.482;2022-11-20T07:46:09;46.47;;;22.17;;
35518;SDS011;21627;48.216;16.482;2022-11-20T07:48:36;51.97;;;22.87;;
35518;SDS011;21627;48.216;16.482;2022-11-20T07:51:03;43.67;;;21.53;;
35518;SDS011;21627;48.216;16.482;2022-11-20T07:53:31;45.07;;;22.33;;
35518;SDS011;21627;48.216;16.482;2022-11-20T07:56:01;52.67;;;24.50;;
35518;SDS011;21627;48.216;16.482;2022-11-20T07:58:29;48.57;;;23.07;;
35518;SDS011;21627;48.216;16.482;2022-11-20T08:01:05;51.33;;;23.60;;
35518;SDS011;21627;48.216;16.482;2022-11-20T08:03:34;46.63;;;22.80;;
35518;SDS011;21627;48.216;16.482;2022-11-20T08:06:04;51.10;;;23.37;;
35518;SDS011;21627;48.216;16.482;2022-11-20T08:08:34;47.10;;;22.13;;
35518;SDS011;21627;48.216;16.482;2022-11-20T08:11:07;48.27;;;23.27;;
35518;SDS011;21627;48.216;16.482;2022-11-20T08:13:53;46.95;;;22.00;;
35518;SDS011;21627;48.216;16.482;2022-11-20T08:16:42;49.27;;;22.57;;
35518;SDS011;21627;48.216;16.482;2022-11-20T08:19:11;50.60;;;23.00;;
35518;SDS011;21627;48.216;16.482;2022-11-20T08:21:40;48.07;;;22.63;;
35518;SDS011;21627;48.216;16.482;2022-11-20T08:24:08;47.57;;;23.47;;
35518;SDS011;21627;48.216;16.482;2022-11-20T08:26:36;49.03;;;22.90;;
35518;SDS011;21627;48.216;16.482;2022-11-20T08:29:04;48.77;;;24.33;;
35518;SDS011;21627;48.216;16.482;2022-11-20T08:31:32;51.07;;;24.30;;
35518;SDS011;21627;48.216;16.482;2022-11-20T08:33:59;52.07;;;23.17;;
35518;SDS011;21627;48.216;16.482;2022-11-20T08:36:34;53.57;;;24.27;;
35518;SDS011;21627;48.216;16.482;2022-11-20T08:39:03;42.90;;;22.07;;
35518;SDS011;21627;48.216;16.482;2022-11-20T08:41:30;47.47;;;23.13;;
35518;SDS011;21627;48.216;16.482;2022-11-20T08:44:00;48.27;;;22.20;;
35518;SDS011;21627;48.216;16.482;2022-11-20T08:46:37;49.60;;;24.20;;
35518;SDS011;21627;48.216;16.482;2022-11-20T08:49:10;49.37;;;23.67;;
35518;SDS011;21627;48.216;16.482;2022-11-20T08:51:40;52.37;;;24.50;;
35518;SDS011;21627;48.216;16.482;2022-11-20T08:54:08;49.67;;;23.63;;
35518;SDS011;21627;48.216;16.482;2022-11-20T08:56:35;46.70;;;21.90;;
35518;SDS011;21627;48.216;16.482;2022-11-20T08:59:03;45.40;;;22.73;;
35518;SDS011;21627;48.216;16.482;2022-11-20T09:01:50;50.60;;;22.13;;
35518;SDS011;21627;48.216;16.482;2022-11-20T09:04:17;50.40;;;23.17;;
35518;SDS011;21627;48.216;16.482;2022-11-20T09:06:44;45.17;;;22.30;;
35518;SDS011;21627;48.216;16.482;2022-11-20T09:09:11;46.77;;;22.80;;
35518;SDS011;21627;48.216;16.482;2022-11-20T09:11:39;49.20;;;24.57;;
35518;SDS011;21627;48.216;16.482;2022-11-20T09:14:06;49.43;;;23.27;;
35518;SDS011;21627;48.216;16.482;2022-11-20T09:16:33;45.03;;;23.40;;
35518;SDS011;21627;48.216;16.482;2022-11-20T09:19:00;55.47;;;25.00;;
35518;SDS011;21627;48.216;16.482;2022-11-20T09:21:47;40.40;;;21.87;;
35518;SDS011;21627;48.216;16.482;2022-11-20T09:24:14;50.27;;;23.77;;
35518;SDS011;21627;48.216;16.482;2022-11-20T09:26:42;53.57;;;23.60;;
35518;SDS011;21627;48.216;16.482;2022-11-20T09:29:10;44.30;;;22.50;;
35518;SDS011;21627;48.216;16.482;2022-11-20T09:31:37;49.73;;;23.70;;
35518;SDS011;21627;48.216;16.482;2022-11-20T09:34:04;46.23;;;25.27;;
35518;SDS011;21627;48.216;16.482;2022-11-20T09:36:31;49.43;;;23.57;;
35518;SDS011;21627;48.216;16.482;2022-11-20T09:38:58;45.17;;;22.67;;
35518;SDS011;21627;48.216;16.482;2022-11-20T09:52:22;50.27;;;24.63;;
35518;SDS011;21627;48.216;16.482;2022-11-20T09:55:20;49.33;;;23.83;;
35518;SDS011;21627;48.216;16.482;2022-11-20T09:57:48;47.93;;;22.93;;
35518;SDS011;21627;48.216;16.482;2022-11-20T10:00:18;46.93;;;24.37;;
35518;SDS011;21627;48.216;16.482;2022-11-20T10:02:55;45.63;;;22.57;;
35518;SDS011;21627;48.216;16.482;2022-11-20T10:05:46;51.45;;;24.30;;
35518;SDS011;21627;48.216;16.482;2022-11-20T10:14:31;47.07;;;22.73;;
35518;SDS011;21627;48.216;16.482;2022-11-20T10:20:48;45.00;;;22.93;;
35518;SDS011;21627;48.216;16.482;2022-11-20T10:26:16;51.30;;;23.43;;
35518;SDS011;21627;48.216;16.482;2022-11-20T10:34:18;51.90;;;22.97;;
35518;SDS011;21627;48.216;16.482;2022-11-20T10:37:15;47.40;;;23.83;;
35518;SDS011;21627;48.216;16.482;2022-11-20T10:42:35;41.97;;;20.92;;
35518;SDS011;21627;48.216;16.482;2022-11-20T10:56:38;49.27;;;24.73;;
35518;SDS011;21627;48.216;16.482;2022-11-20T11:05:10;49.83;;;24.97;;
35518;SDS011;21627;48.216;16.482;2022-11-20T11:07:43;47.83;;;23.43;;
35518;SDS011;21627;48.216;16.482;2022-11-20T11:10:36;54.67;;;25.93;;
35518;SDS011;21627;48.216;16.482;2022-11-20T11:13:27;49.53;;;23.70;;
35518;SDS011;21627;48.216;16.482;2022-11-20T11:15:57;53.97;;;24.90;;
35518;SDS011;21627;48.216;16.482;2022-11-20T11:21:01;54.35;;;24.33;;
35518;SDS011;21627;48.216;16.482;2022-11-20T11:26:03;59.20;;;25.33;;
35518;SDS011;21627;48.216;16.482;2022-11-20T11:28:32;59.73;;;26.47;;
35518;SDS011;21627;48.216;16.482;2022-11-20T11:31:00;57.70;;;25.87;;
35518;SDS011;21627;48.216;16.482;2022-11-20T11:33:28;45.10;;;23.53;;
35518;SDS011;21627;48.216;16.482;2022-11-20T11:36:00;51.10;;;25.53;;
35518;SDS011;21627;48.216;16.482;2022-11-20T11:38:35;58.80;;;27.63;;
35518;SDS011;21627;48.216;16.482;2022-11-20T11:41:07;58.53;;;26.08;;
35518;SDS011;21627;48.216;16.482;2022-11-20T11:43:49;46.77;;;24.53;;
35518;SDS011;21627;48.216;16.482;2022-11-20T11:46:44;44.73;;;24.03;;
35518;SDS011;21627;48.216;16.482;2022-11-20T11:49:22;48.87;;;24.47;;
35518;SDS011;21627;48.216;16.482;2022-11-20T11:54:38;45.60;;;22.90;;
35518;SDS011;21627;48.216;16.482;2022-11-20T11:57:23;58.07;;;25.77;;
35518;SDS011;21627;48.216;16.482;2022-11-20T12:00:17;48.30;;;24.73;;
35518;SDS011;21627;48.216;16.482;2022-11-20T12:05:45;49.73;;;24.63;;
35518;SDS011;21627;48.216;16.482;2022-11-20T12:08:19;47.60;;;24.55;;
35518;SDS011;21627;48.216;16.482;2022-11-20T12:11:04;46.50;;;24.03;;
35518;SDS011;21627;48.216;16.482;2022-11-20T12:17:01;48.80;;;24.08;;
35518;SDS011;21627;48.216;16.482;2022-11-20T12:19:30;54.50;;;24.23;;
35518;SDS011;21627;48.216;16.482;2022-11-20T12:22:11;48.47;;;24.23;;
35518;SDS011;21627;48.216;16.482;2022-11-20T12:28:03;44.33;;;23.02;;
35518;SDS011;21627;48.216;16.482;2022-11-20T12:31:18;52.72;;;24.25;;
35518;SDS011;21627;48.216;16.482;2022-11-20T12:34:21;50.72;;;23.60;;
35518;SDS011;21627;48.216;16.482;2022-11-20T12:57:25;40.38;;;21.23;;
35518;SDS011;21627;48.216;16.482;2022-11-20T13:00:24;42.20;;;21.95;;
35518;SDS011;21627;48.216;16.482;2022-11-20T13:06:05;38.13;;;20.90;;
35518;SDS011;21627;48.216;16.482;2022-11-20T13:08:48;43.38;;;21.65;;
35518;SDS011;21627;48.216;16.482;2022-11-20T13:14:50;43.17;;;21.63;;
35518;SDS011;21627;48.216;16.482;2022-11-20T13:20:18;38.95;;;21.60;;
35518;SDS011;21627;48.216;16.482;2022-11-20T13:22:48;35.95;;;19.73;;
35518;SDS011;21627;48.216;16.482;2022-11-20T13:28:25;41.03;;;20.60;;
35518;SDS011;21627;48.216;16.482;2022-11-20T13:30:57;43.40;;;21.08;;
35518;SDS011;21627;48.216;16.482;2022-11-20T13:33:33;38.28;;;20.33;;
35518;SDS011;21627;48.216;16.482;2022-11-20T13:36:04;38.20;;;20.38;;
35518;SDS011;21627;48.216;16.482;2022-11-20T13:38:46;42.20;;;21.67;;
35518;SDS011;21627;48.216;16.482;2022-11-20T13:41:29;41.75;;;22.20;;
35518;SDS011;21627;48.216;16.482;2022-11-20T13:44:12;38.75;;;20.40;;
35518;SDS011;21627;48.216;16.482;2022-11-20T13:46:55;41.92;;;21.55;;
35518;SDS011;21627;48.216;16.482;2022-11-20T14:01:40;43.30;;;21.20;;
35518;SDS011;21627;48.216;16.482;2022-11-20T14:04:15;37.72;;;20.52;;
35518;SDS011;21627;48.216;16.482;2022-11-20T14:06:53;38.90;;;20.80;;
35518;SDS011;21627;48.216;16.482;2022-11-20T14:09:25;40.50;;;22.38;;
35518;SDS011;21627;48.216;16.482;2022-11-20T14:14:26;36.92;;;19.73;;
35518;SDS011;21627;48.216;16.482;2022-11-20T14:17:08;38.20;;;20.92;;
35518;SDS011;21627;48.216;16.482;2022-11-20T14:19:47;40.58;;;20.45;;
35518;SDS011;21627;48.216;16.482;2022-11-20T14:25:04;37.17;;;21.00;;
35518;SDS011;21627;48.216;16.482;2022-11-20T14:27:47;37.67;;;21.48;;
35518;SDS011;21627;48.216;16.482;2022-11-20T14:30:29;35.85;;;19.55;;
35518;SDS011;21627;48.216;16.482;2022-11-20T14:33:11;40.60;;;20.10;;
35518;SDS011;21627;48.216;16.482;2022-11-20T14:35:45;42.80;;;20.90;;
35518;SDS011;21627;48.216;16.482;2022-11-20T14:38:19;37.63;;;19.52;;
35518;SDS011;21627;48.216;16.482;2022-11-20T14:41:08;37.78;;;21.10;;
35518;SDS011;21627;48.216;16.482;2022-11-20T14:43:47;39.93;;;20.67;;
35518;SDS011;21627;48.216;16.482;2022-11-20T14:46:25;39.70;;;20.30;;
35518;SDS011;21627;48.216;16.482;2022-11-20T14:48:55;37.38;;;20.15;;
35518;SDS011;21627;48.216;16.482;2022-11-20T14:51:34;38.92;;;21.50;;
35518;SDS011;21627;48.216;16.482;2022-11-20T14:54:08;50.20;;;22.75;;
35518;SDS011;21627;48.216;16.482;2022-11-20T14:56:58;39.60;;;21.25;;
35518;SDS011;21627;48.216;16.482;2022-11-20T14:59:32;33.15;;;18.38;;
35518;SDS011;21627;48.216;16.482;2022-11-20T15:02:11;40.25;;;20.70;;
35518;SDS011;21627;48.216;16.482;2022-11-20T15:04:47;42.03;;;20.98;;
35518;SDS011;21627;48.216;16.482;2022-11-20T15:07:29;35.67;;;19.75;;
35518;SDS011;21627;48.216;16.482;2022-11-20T15:12:40;36.90;;;18.90;;
35518;SDS011;21627;48.216;16.482;2022-11-20T15:15:30;43.50;;;21.67;;
35518;SDS011;21627;48.216;16.482;2022-11-20T15:18:17;38.13;;;19.35;;
35518;SDS011;21627;48.216;16.482;2022-11-20T15:20:55;43.53;;;21.23;;
35518;SDS011;21627;48.216;16.482;2022-11-20T15:23:26;39.08;;;20.92;;
35518;SDS011;21627;48.216;16.482;2022-11-20T15:25:54;39.15;;;20.05;;
35518;SDS011;21627;48.216;16.482;2022-11-20T15:28:26;41.30;;;21.70;;
35518;SDS011;21627;48.216;16.482;2022-11-20T15:31:04;37.42;;;20.48;;
35518;SDS011;21627;48.216;16.482;2022-11-20T15:33:32;41.20;;;21.92;;
35518;SDS011;21627;48.216;16.482;2022-11-20T15:36:01;38.92;;;20.63;;
35518;SDS011;21627;48.216;16.482;2022-11-20T15:38:30;38.50;;;20.25;;
35518;SDS011;21627;48.216;16.482;2022-11-20T15:40:58;38.78;;;20.48;;
35518;SDS011;21627;48.216;16.482;2022-11-20T15:43:26;40.30;;;20.42;;
35518;SDS011;21627;48.216;16.482;2022-11-20T15:46:01;41.35;;;21.25;;
35518;SDS011;21627;48.216;16.482;2022-11-20T15:48:55;44.90;;;20.98;;
35518;SDS011;21627;48.216;16.482;2022-11-20T15:51:25;44.67;;;21.75;;
35518;SDS011;21627;48.216;16.482;2022-11-20T15:53:56;43.90;;;22.08;;
35518;SDS011;21627;48.216;16.482;2022-11-20T15:56:28;43.15;;;22.08;;
35518;SDS011;21627;48.216;16.482;2022-11-20T15:58:56;47.85;;;23.30;;
35518;SDS011;21627;48.216;16.482;2022-11-20T16:01:24;48.65;;;24.33;;
35518;SDS011;21627;48.216;16.482;2022-11-20T16:03:52;53.47;;;24.52;;
35518;SDS011;21627;48.216;16.482;2022-11-20T16:06:22;52.70;;;27.25;;
35518;SDS011;21627;48.216;16.482;2022-11-20T16:08:52;57.22;;;26.98;;
35518;SDS011;21627;48.216;16.482;2022-11-20T16:11:20;52.63;;;27.42;;
35518;SDS011;21627;48.216;16.482;2022-11-20T16:13:48;53.80;;;27.10;;
35518;SDS011;21627;48.216;16.482;2022-11-20T16:16:36;51.15;;;28.02;;
35518;SDS011;21627;48.216;16.482;2022-11-20T16:19:11;59.08;;;28.15;;
35518;SDS011;21627;48.216;16.482;2022-11-20T16:21:41;51.58;;;26.05;;
35518;SDS011;21627;48.216;16.482;2022-11-20T16:24:10;52.83;;;27.23;;
35518;SDS011;21627;48.216;16.482;2022-11-20T16:26:40;45.63;;;24.33;;
35518;SDS011;21627;48.216;16.482;2022-11-20T16:29:08;43.72;;;24.55;;
35518;SDS011;21627;48.216;16.482;2022-11-20T16:31:38;49.65;;;26.20;;
35518;SDS011;21627;48.216;16.482;2022-11-20T16:34:08;52.00;;;24.58;;
35518;SDS011;21627;48.216;16.482;2022-11-20T16:36:41;54.80;;;28.52;;
35518;SDS011;21627;48.216;16.482;2022-11-20T16:39:11;60.97;;;29.73;;
35518;SDS011;21627;48.216;16.482;2022-11-20T16:41:45;52.50;;;27.10;;